Titel Airstrip

RS-0012 · Vojvodina, Serbia

História da METAR RS-0012 · Titel Airstrip

Abaixo você vê METARs dos últimos dias. Selecione um ano para navegar pelos METARs mais antigos, a partir do ano 2007.

19 de maio de 2024

Hora Código Clima Temp. Visibilidade Tecto Vento METAR/SPECI
03:00
V
18 °C 10 km+ - 090° 090° 5 kt METAR LYBT 190100Z 09005KT 050V130 CAVOK 18/14 Q1011 NOSIG
02:30
V
17 °C 10 km+ - 080° 080° 5 kt METAR LYBT 190030Z 08005KT CAVOK 17/15 Q1011 NOSIG
02:00
V
16 °C 10 km+ - 100° 100° 4 kt METAR LYBT 190000Z 10004KT CAVOK 16/14 Q1011 NOSIG
01:30
V
18 °C 10 km+ - 100° 100° 6 kt METAR LYBT 182330Z 10006KT CAVOK 18/14 Q1012 NOSIG
01:00
V
17 °C 10 km+ - 080° 080° 4 kt METAR LYBT 182300Z 08004KT 050V120 CAVOK 17/13 Q1012 NOSIG
00:30
V
16 °C 10 km+ - Var Var 1 kt METAR LYBT 182230Z VRB01KT CAVOK 16/13 Q1012 NOSIG
00:00
V
16 °C 10 km+ - Var Var 1 kt METAR LYBT 182200Z VRB01KT CAVOK 16/13 Q1012 NOSIG

18 de maio de 2024

Hora Código Clima Temp. Visibilidade Tecto Vento METAR/SPECI
23:30
V
18 °C 10 km+ - 100° 100° 4 kt METAR LYBT 182130Z 10004KT CAVOK 18/13 Q1012 NOSIG
23:00
V
18 °C 10 km+ - 120° 120° 5 kt METAR LYBT 182100Z 12005KT CAVOK 18/12 Q1012 NOSIG
22:30
V
20 °C 10 km+ - 110° 110° 5 kt METAR LYBT 182030Z 11005KT CAVOK 20/11 Q1012 NOSIG
22:00
V
19 °C 10 km+ - Var Var 2 kt METAR LYBT 182000Z VRB02KT CAVOK 19/12 Q1013 NOSIG
21:30
V
20 °C 10 km+ - Var Var 2 kt METAR LYBT 181930Z VRB02KT CAVOK 20/12 Q1013 NOSIG
21:00
V
20 °C 10 km+ - Var Var 1 kt METAR LYBT 181900Z VRB01KT CAVOK 20/13 Q1013 NOSIG
20:30
V
22 °C 10 km+ - 110° 110° 2 kt METAR LYBT 181830Z 11002KT CAVOK 22/11 Q1013 NOSIG
20:00
V
22 °C 10 km+ - 120° 120° 3 kt METAR LYBT 181800Z 12003KT CAVOK 22/13 Q1013 NOSIG
19:30
V
22 °C 10 km+ - 130° 130° 3 kt METAR LYBT 181730Z 13003KT CAVOK 22/14 Q1013 NOSIG
19:00
V
23 °C 10 km+ - 120° 120° 4 kt METAR LYBT 181700Z 12004KT CAVOK 23/13 Q1013 NOSIG
18:30
V
25 °C 10 km+ - 100° 100° 3 kt METAR LYBT 181630Z 10003KT 060V120 CAVOK 25/12 Q1013 NOSIG
18:00
V
26 °C 10 km+ - 070° 070° 3 kt METAR LYBT 181600Z 07003KT 040V100 CAVOK 26/09 Q1013 NOSIG
17:30
V
26 °C 10 km+ - 080° 080° 4 kt METAR LYBT 181530Z 08004KT 030V120 CAVOK 26/09 Q1013 NOSIG
17:00
V
26 °C 10 km+ - 070° 070° 5 kt METAR LYBT 181500Z 07005KT 030V090 CAVOK 26/09 Q1013 NOSIG
16:30
V
26 °C 10 km+ - 080° 080° 5 kt METAR LYBT 181430Z 08005KT 030V120 CAVOK 26/10 Q1013 NOSIG
16:00
V
26 °C 10 km+ - Var Var 1 kt METAR LYBT 181400Z VRB01KT CAVOK 26/08 Q1013 NOSIG
15:30
V
26 °C 10 km+ - 170° 170° 3 kt METAR LYBT 181330Z 17003KT 090V210 CAVOK 26/09 Q1014 NOSIG
15:00
V
26 °C 10 km+ - 150° 150° 4 kt METAR LYBT 181300Z 15004KT 090V220 CAVOK 26/10 Q1014 NOSIG
14:30
V
26 °C 10 km+ - Var Var 2 kt METAR LYBT 181230Z VRB02KT CAVOK 26/11 Q1015 NOSIG
14:00
V
26 °C 10 km+ - 210° 210° 5 kt METAR LYBT 181200Z 21005KT 160V260 CAVOK 26/11 Q1015 NOSIG
13:30
V
25 °C 10 km+ - 240° 240° 3 kt METAR LYBT 181130Z 24003KT 120V290 CAVOK 25/12 Q1015 NOSIG
13:00
V
25 °C 10 km+ - 100° 100° 2 kt METAR LYBT 181100Z 10002KT CAVOK 25/12 Q1015 NOSIG
12:30
V
24 °C 10 km+ - 250° 250° 4 kt METAR LYBT 181030Z 25004KT 150V320 CAVOK 24/12 Q1016 NOSIG
12:00
V
24 °C 10 km+ - 270° 270° 3 kt METAR LYBT 181000Z 27003KT 210V350 9999 FEW046 24/12 Q1016 NOSIG
11:30
V
24 °C 10 km+ - Var Var 4 kt METAR LYBT 180930Z VRB04KT 9999 FEW043 24/12 Q1016 NOSIG
11:00
V
23 °C 10 km+ - Var Var 2 kt METAR LYBT 180900Z VRB02KT 9999 FEW040 23/12 Q1016 NOSIG
10:30
V
22 °C 10 km+ - Var Var 2 kt METAR LYBT 180830Z VRB02KT 9999 FEW033 22/13 Q1016 NOSIG
10:00
V
21 °C 10 km+ - 150° 150° 1 kt METAR LYBT 180800Z 15001KT CAVOK 21/14 Q1016 NOSIG
09:30
V
20 °C 10 km+ - Var Var 1 kt METAR LYBT 180730Z VRB01KT CAVOK 20/15 Q1016 NOSIG
09:00
V
19 °C 10 km+ - 240° 240° 1 kt METAR LYBT 180700Z 24001KT CAVOK 19/16 Q1016 NOSIG
08:30
V
18 °C 10 km+ - Var Var 1 kt METAR LYBT 180630Z VRB01KT CAVOK 18/15 Q1016 NOSIG
08:00
V
17 °C 10 km+ - 160° 160° 3 kt METAR LYBT 180600Z 16003KT 120V220 CAVOK 17/15 Q1016 NOSIG
07:30
V
16 °C 10 km+ - 130° 130° 4 kt METAR LYBT 180530Z 13004KT CAVOK 16/14 Q1016 NOSIG
07:00
V
14 °C 10 km+ - 120° 120° 3 kt METAR LYBT 180500Z 12003KT 100V160 CAVOK 14/14 Q1016 NOSIG
06:30
M
12 °C 6 km - 120° 120° 3 kt METAR LYBT 180430Z 12003KT 080V140 6000 NSC 12/12 Q1015 NOSIG
06:00
I
11 °C 4 km - 120° 120° 1 kt METAR LYBT 180400Z 12001KT 4000 BR NSC 11/11 Q1015 BECMG 6000 NSW
05:00
L
11 °C 600 m - 060° 060° 2 kt METAR LYBT 180300Z 06002KT 0600 R12/0700U R30/P2000N FG NSC 11/11 Q1015 NOSIG
04:30
L
11 °C 300 m - 160° 160° 2 kt METAR LYBT 180230Z 16002KT 0300 R12/0400D R30/0900U FG NSC 11/11 Q1014 NOSIG
04:00
M
13 °C 6 km - 200° 200° 1 kt METAR LYBT 180200Z 20001KT 6000 MIFG NSC 13/13 Q1014
03:30
V
14 °C 10 km+ - Var Var 2 kt METAR LYBT 180130Z VRB02KT CAVOK 14/13 Q1014 NOSIG
03:00
V
14 °C 10 km+ - Var Var 2 kt METAR LYBT 180100Z VRB02KT CAVOK 14/14 Q1014 NOSIG
02:30
V
14 °C 10 km+ - 090° 090° 4 kt METAR LYBT 180030Z 09004KT CAVOK 14/13 Q1014 NOSIG
02:00
V
15 °C 10 km+ - 140° 140° 6 kt METAR LYBT 180000Z 14006KT 9999 -RA FEW040 15/13 Q1014 NOSIG
01:30
V
14 °C 10 km+ - Var Var 2 kt METAR LYBT 172330Z VRB02KT CAVOK 14/12 Q1014 NOSIG
01:00
V
14 °C 10 km+ - Var Var 2 kt METAR LYBT 172300Z VRB02KT CAVOK 14/12 Q1014 NOSIG
00:30
V
14 °C 10 km+ - 090° 090° 3 kt METAR LYBT 172230Z 09003KT CAVOK 14/11 Q1014 NOSIG
00:00
V
14 °C 10 km+ - 090° 090° 3 kt METAR LYBT 172200Z 09003KT CAVOK 14/11 Q1014 NOSIG

17 de maio de 2024

Hora Código Clima Temp. Visibilidade Tecto Vento METAR/SPECI
23:30
V
14 °C 10 km+ - 110° 110° 6 kt METAR LYBT 172130Z 11006KT CAVOK 14/12 Q1013 NOSIG
23:00
V
15 °C 10 km+ - 110° 110° 4 kt METAR LYBT 172100Z 11004KT 070V140 CAVOK 15/11 Q1013 NOSIG
22:30
V
15 °C 10 km+ - 120° 120° 6 kt METAR LYBT 172030Z 12006KT CAVOK 15/11 Q1013 NOSIG
22:00
V
15 °C 10 km+ - 110° 110° 9 kt METAR LYBT 172000Z 11009KT 080V150 CAVOK 15/11 Q1013 NOSIG
21:30
V
15 °C 10 km+ - 110° 110° 10 kt METAR LYBT 171930Z 11010KT 080V150 CAVOK 15/11 Q1013 NOSIG
21:00
V
16 °C 10 km+ - 110° 110° 10 kt METAR LYBT 171900Z 11010KT CAVOK 16/10 Q1013 NOSIG
20:30
V
16 °C 10 km+ - 110° 110° 12 kt METAR LYBT 171830Z 11012KT 070V130 CAVOK 16/10 Q1012 NOSIG
20:00
V
16 °C 10 km+ - 110° 110° 11 kt METAR LYBT 171800Z 11011KT 080V140 CAVOK 16/10 Q1012 NOSIG
19:30
V
18 °C 10 km+ - 100° 100° 12 kt METAR LYBT 171730Z 10012KT CAVOK 18/11 Q1012 NOSIG
19:00
V
18 °C 10 km+ - 100° 100° 11 kt METAR LYBT 171700Z 10011KT 070V130 CAVOK 18/11 Q1012 NOSIG
18:30
V
19 °C 10 km+ - 100° 100° 13 kt METAR LYBT 171630Z 10013KT 060V140 CAVOK 19/11 Q1011 NOSIG
18:00
V
21 °C 10 km+ - 110° 110° 16 kt METAR LYBT 171600Z 11016KT 070V140 CAVOK 21/12 Q1011 NOSIG
17:30
V
21 °C 10 km+ - 120° 120° 17 kt METAR LYBT 171530Z 12017KT CAVOK 21/12 Q1011 NOSIG
17:00
V
22 °C 10 km+ - 110° 110° 14 kt METAR LYBT 171500Z 11014KT 070V140 CAVOK 22/13 Q1011 NOSIG
16:30
V
21 °C 10 km+ - 110° 110° 15 kt METAR LYBT 171430Z 11015KT 080V140 CAVOK 21/13 Q1011 NOSIG
16:00
V
22 °C 10 km+ - 110° 110° 15 kt METAR LYBT 171400Z 11015KT 080V140 CAVOK 22/13 Q1011 NOSIG
15:30
V
23 °C 10 km+ - 110° 110° 14 kt METAR LYBT 171330Z 11014KT 080V140 CAVOK 23/14 Q1011 NOSIG
15:00
V
23 °C 10 km+ - 140° 140° 15 kt METAR LYBT 171300Z 14015KT 110V170 CAVOK 23/14 Q1011 NOSIG
14:30
V
23 °C 10 km+ - 130° 130° 15 kt METAR LYBT 171230Z 13015KT CAVOK 23/14 Q1011 NOSIG
14:00
V
23 °C 10 km+ - 120° 120° 14 kt METAR LYBT 171200Z 12014KT 090V160 CAVOK 23/14 Q1011 NOSIG
13:30
V
22 °C 10 km+ - 130° 130° 14 kt METAR LYBT 171130Z 13014KT 090V150 CAVOK 22/14 Q1011 NOSIG
13:00
V
22 °C 10 km+ - 120° 120° 14 kt METAR LYBT 171100Z 12014KT 080V160 CAVOK 22/14 Q1012 NOSIG
12:30
V
21 °C 10 km+ - 130° 130° 14 kt METAR LYBT 171030Z 13014KT 110V170 CAVOK 21/13 Q1012 NOSIG
12:00
V
21 °C 10 km+ - 130° 130° 16 kt METAR LYBT 171000Z 13016KT CAVOK 21/13 Q1012 NOSIG
11:30
V
20 °C 10 km+ - 140° 140° 18 kt METAR LYBT 170930Z 14018KT CAVOK 20/13 Q1012 NOSIG
11:00
V
20 °C 10 km+ - 130° 130° 17 kt METAR LYBT 170900Z 13017KT CAVOK 20/13 Q1011 NOSIG
10:30
V
19 °C 10 km+ - 140° 140° 20 - 31 kt METAR LYBT 170830Z 14020G31KT CAVOK 19/13 Q1011 NOSIG
10:00
V
18 °C 10 km+ - 130° 130° 19 kt METAR LYBT 170800Z 13019KT CAVOK 18/12 Q1011 NOSIG
09:30
V
19 °C 10 km+ - 140° 140° 18 kt METAR LYBT 170730Z 14018KT CAVOK 19/12 Q1011 NOSIG
09:00
V
18 °C 10 km+ - 140° 140° 20 kt METAR LYBT 170700Z 14020KT 110V170 CAVOK 18/12 Q1011 NOSIG
08:30
V
17 °C 10 km+ - 140° 140° 19 kt METAR LYBT 170630Z 14019KT 110V170 CAVOK 17/12 Q1011 NOSIG
08:00
V
16 °C 10 km+ - 140° 140° 17 kt METAR LYBT 170600Z 14017KT 110V170 CAVOK 16/11 Q1011 NOSIG
07:30
V
16 °C 10 km+ - 130° 130° 17 kt METAR LYBT 170530Z 13017KT CAVOK 16/11 Q1011 NOSIG
07:00
V
15 °C 10 km+ - 130° 130° 19 kt METAR LYBT 170500Z 13019KT CAVOK 15/11 Q1010 NOSIG
06:30
V
15 °C 10 km+ - 130° 130° 16 kt METAR LYBT 170430Z 13016KT 100V160 CAVOK 15/11 Q1011 NOSIG
06:00
V
15 °C 10 km+ - 130° 130° 18 kt METAR LYBT 170400Z 13018KT CAVOK 15/11 Q1010 NOSIG
05:30
V
15 °C 10 km+ - 130° 130° 18 kt METAR LYBT 170330Z 13018KT CAVOK 15/10 Q1010 NOSIG
05:00
V
15 °C 10 km+ - 130° 130° 19 kt METAR LYBT 170300Z 13019KT CAVOK 15/10 Q1010 NOSIG
04:30
V
15 °C 10 km+ - 130° 130° 18 kt METAR LYBT 170230Z 13018KT CAVOK 15/10 Q1010 NOSIG
04:00
V
15 °C 10 km+ - 130° 130° 19 kt METAR LYBT 170200Z 13019KT 090V160 CAVOK 15/10 Q1010 NOSIG
03:30
V
15 °C 10 km+ - 120° 120° 15 kt METAR LYBT 170130Z 12015KT CAVOK 15/10 Q1010 NOSIG
03:00
V
15 °C 10 km+ - 130° 130° 17 kt METAR LYBT 170100Z 13017KT 110V170 CAVOK 15/10 Q1010 NOSIG
02:30
V
15 °C 10 km+ - 130° 130° 19 kt METAR LYBT 170030Z 13019KT CAVOK 15/10 Q1010 NOSIG
02:00
V
15 °C 10 km+ - 130° 130° 20 kt METAR LYBT 170000Z 13020KT CAVOK 15/11 Q1010 NOSIG
01:30
V
15 °C 10 km+ - 130° 130° 17 kt METAR LYBT 162330Z 13017KT CAVOK 15/11 Q1011 NOSIG
01:00
V
15 °C 10 km+ - 120° 120° 15 kt METAR LYBT 162300Z 12015KT CAVOK 15/11 Q1011 NOSIG
00:30
V
15 °C 10 km+ - 120° 120° 15 kt METAR LYBT 162230Z 12015KT CAVOK 15/11 Q1011 NOSIG
00:00
V
15 °C 10 km+ - 120° 120° 17 kt METAR LYBT 162200Z 12017KT CAVOK 15/12 Q1011 NOSIG

16 de maio de 2024

Hora Código Clima Temp. Visibilidade Tecto Vento METAR/SPECI
23:30
V
15 °C 10 km+ - 120° 120° 19 kt METAR LYBT 162130Z 12019KT CAVOK 15/12 Q1011 NOSIG
23:00
V
15 °C 10 km+ - 120° 120° 19 kt METAR LYBT 162100Z 12019KT CAVOK 15/12 Q1012 NOSIG
22:30
V
15 °C 10 km+ - 120° 120° 17 kt METAR LYBT 162030Z 12017KT CAVOK 15/12 Q1012 NOSIG
22:00
V
14 °C 10 km+ - 120° 120° 17 kt METAR LYBT 162000Z 12017KT 9999 FEW040 14/12 Q1012 NOSIG
21:30
V
14 °C 10 km+ - 120° 120° 18 kt METAR LYBT 161930Z 12018KT 9999 SCT040 14/12 Q1012 NOSIG
21:00
V
14 °C 10 km+ - 110° 110° 16 kt METAR LYBT 161900Z 11016KT 9999 SCT040 14/12 Q1013 NOSIG
20:30
V
14 °C 10 km+ - 120° 120° 13 kt METAR LYBT 161830Z 12013KT 9999 SCT040 14/12 Q1012 NOSIG
20:00
V
14 °C 10 km+ - 110° 110° 15 kt METAR LYBT 161800Z 11015KT 080V140 9999 -RA SCT040 14/12 Q1013 NOSIG
19:30
V
14 °C 10 km+ - 110° 110° 17 kt METAR LYBT 161730Z 11017KT 9999 -RA SCT040 14/12 Q1013 NOSIG
19:00
V
15 °C 10 km+ - 130° 130° 17 kt METAR LYBT 161700Z 13017KT 9999 -RA SCT040 15/12 Q1013 NOSIG
18:30
V
17 °C 10 km+ - 130° 130° 23 kt METAR LYBT 161630Z 13023KT 9999 SCT040 17/10 Q1013 TEMPO SHRA SCT035TCU BKN040
18:00
V
18 °C 10 km+ - 130° 130° 21 kt METAR LYBT 161600Z 13021KT 9999 FEW040 18/10 Q1012 NOSIG
17:30
V
19 °C 10 km+ - 130° 130° 18 kt METAR LYBT 161530Z 13018KT 9999 FEW040 19/11 Q1013 NOSIG
17:00
V
20 °C 10 km+ - 130° 130° 22 kt METAR LYBT 161500Z 13022KT 9999 FEW040 20/11 Q1012 NOSIG
16:30
V
20 °C 10 km+ - 120° 120° 20 kt METAR LYBT 161430Z 12020KT CAVOK 20/11 Q1013 NOSIG
16:00
V
20 °C 10 km+ - 120° 120° 20 kt METAR LYBT 161400Z 12020KT CAVOK 20/11 Q1012 NOSIG
15:30
V
20 °C 10 km+ - 120° 120° 20 kt METAR LYBT 161330Z 12020KT CAVOK 20/11 Q1013 NOSIG
15:00
V
22 °C 10 km+ - 130° 130° 20 kt METAR LYBT 161300Z 13020KT CAVOK 22/12 Q1013 NOSIG
14:30
V
22 °C 10 km+ - 130° 130° 19 - 29 kt METAR LYBT 161230Z 13019G29KT CAVOK 22/12 Q1013 NOSIG
14:00
V
21 °C 10 km+ - 120° 120° 21 kt METAR LYBT 161200Z 12021KT 090V160 CAVOK 21/11 Q1013 NOSIG
13:30
V
21 °C 10 km+ - 120° 120° 20 kt METAR LYBT 161130Z 12020KT 080V140 CAVOK 21/11 Q1013 NOSIG
13:00
V
21 °C 10 km+ - 120° 120° 20 kt METAR LYBT 161100Z 12020KT CAVOK 21/11 Q1014 NOSIG
12:30
V
21 °C 10 km+ - 120° 120° 21 kt METAR LYBT 161030Z 12021KT CAVOK 21/10 Q1014 NOSIG
12:00
V
20 °C 10 km+ - 120° 120° 19 kt METAR LYBT 161000Z 12019KT CAVOK 20/11 Q1015 NOSIG
11:30
V
19 °C 10 km+ - 120° 120° 20 kt METAR LYBT 160930Z 12020KT 090V150 CAVOK 19/10 Q1015 NOSIG
11:00
V
20 °C 10 km+ - 120° 120° 21 kt METAR LYBT 160900Z 12021KT CAVOK 20/10 Q1015 NOSIG
10:30
V
19 °C 10 km+ - 130° 130° 18 kt METAR LYBT 160830Z 13018KT 100V160 CAVOK 19/10 Q1015 NOSIG
10:00
V
18 °C 10 km+ - 130° 130° 17 kt METAR LYBT 160800Z 13017KT 090V170 CAVOK 18/10 Q1015 NOSIG
09:30
V
18 °C 10 km+ - 120° 120° 19 kt METAR LYBT 160730Z 12019KT CAVOK 18/10 Q1015 NOSIG
09:00
V
17 °C 10 km+ - 120° 120° 18 kt METAR LYBT 160700Z 12018KT CAVOK 17/10 Q1015 NOSIG
08:30
V
17 °C 10 km+ - 130° 130° 14 kt METAR LYBT 160630Z 13014KT 100V160 CAVOK 17/10 Q1015 NOSIG
08:00
V
16 °C 10 km+ - 120° 120° 12 kt METAR LYBT 160600Z 12012KT 090V160 CAVOK 16/10 Q1015 NOSIG
Relatar uma mudança